Federal Matane — V2CF1 — position and weather

sailwx.info

Track history (hours):
 
Tides and Currents Weather Stations Pressure Air Temp Water Temp Dewpoint Dewpoint Depression Visibility Wind Speed Wind Dir Waves Ship Positions

Federal Matane

Last reported at 2017-Dec-09 20:21 UTC. Time now 2017-Dec-11 23:04 UTC.
Position N 45°47' W 085°51'.

Length 185.1 m; beam 23.5 m; draft 9.8 m.

Type: Ship. MMSI: 304604000.

Date/timePositionNaut miles runAvg speedWind from/ knotsBaromVisibWave heightAir tempDewpointWater temp
2017-Dec-09 20:21N 45°47' W 085°51'513.9
2017-Dec-09 20:00N 45°49' W 085°45'913.6
2017-Dec-09 19:21N 45°53' W 085°34'613.4
2017-Dec-09 18:55N 45°53' W 085°25'613.5
2017-Dec-09 18:30N 45°52' W 085°17'713.8
2017-Dec-09 18:00N 45°51' W 085°08'714.4
2017-Dec-09 17:30N 45°50' W 084°57'815.3
2017-Dec-09 17:00N 45°49' W 084°46'714.4
2017-Dec-09 16:30N 45°46' W 084°37'713.7
2017-Dec-09 16:00N 45°42' W 084°29'2513.4
2017-Dec-09 14:07N 45°34' W 083°55'213.5
2017-Dec-09 14:00N 45°34' W 083°53'713.5
2017-Dec-09 13:30N 45°31' W 083°44'713.5
2017-Dec-09 13:01N 45°28' W 083°36'813.5
2017-Dec-09 12:23N 45°24' W 083°25'  
2017-Dec-02 15:47N 45°14' W 074°00'2 8.8
2017-Dec-02 15:30N 45°16' W 073°58'3 6.2
2017-Dec-02 15:00N 45°18' W 073°56'0 0.8
2017-Dec-02 14:30N 45°19' W 073°55'0 0.9
2017-Dec-02 14:01N 45°19' W 073°55'1 2.5
2017-Dec-02 13:31N 45°20' W 073°54'2 4.9
2017-Dec-02 13:00N 45°21' W 073°51'5 9.3
2017-Dec-02 12:30N 45°24' W 073°46'4 7.9
2017-Dec-02 12:00N 45°25' W 073°40'3 5.8
2017-Dec-02 11:29N 45°24' W 073°36'2 2.8
2017-Dec-02 10:55N 45°24' W 073°34'1 1.7
2017-Dec-02 10:29N 45°24' W 073°33'3 5.2
2017-Dec-02 09:59N 45°26' W 073°30'  
Track history (hours):
 
Tides and Currents Weather Stations Pressure Air Temp Water Temp Dewpoint Dewpoint Depression Visibility Wind Speed Wind Dir Waves Ship Positions

Federal Matane

Last reported at 2017-Dec-09 20:21 UTC. Time now 2017-Dec-11 23:04 UTC.
Position N 45°47' W 085°51'.

Length 185.1 m; beam 23.5 m; draft 9.8 m.

Type: Ship. MMSI: 304604000.

Date/timePositionNaut miles runAvg speedWind from/ knotsBaromVisibWave heightAir tempDewpointWater temp
2017-Dec-09 20:21N 45°47' W 085°51'513.9
2017-Dec-09 20:00N 45°49' W 085°45'913.6
2017-Dec-09 19:21N 45°53' W 085°34'613.4
2017-Dec-09 18:55N 45°53' W 085°25'613.5
2017-Dec-09 18:30N 45°52' W 085°17'713.8
2017-Dec-09 18:00N 45°51' W 085°08'714.4
2017-Dec-09 17:30N 45°50' W 084°57'815.3
2017-Dec-09 17:00N 45°49' W 084°46'714.4
2017-Dec-09 16:30N 45°46' W 084°37'713.7
2017-Dec-09 16:00N 45°42' W 084°29'2513.4
2017-Dec-09 14:07N 45°34' W 083°55'213.5
2017-Dec-09 14:00N 45°34' W 083°53'713.5
2017-Dec-09 13:30N 45°31' W 083°44'713.5
2017-Dec-09 13:01N 45°28' W 083°36'813.5
2017-Dec-09 12:23N 45°24' W 083°25'  
2017-Dec-02 15:47N 45°14' W 074°00'2 8.8
2017-Dec-02 15:30N 45°16' W 073°58'3 6.2
2017-Dec-02 15:00N 45°18' W 073°56'0 0.8
2017-Dec-02 14:30N 45°19' W 073°55'0 0.9
2017-Dec-02 14:01N 45°19' W 073°55'1 2.5
2017-Dec-02 13:31N 45°20' W 073°54'2 4.9
2017-Dec-02 13:00N 45°21' W 073°51'5 9.3
2017-Dec-02 12:30N 45°24' W 073°46'4 7.9
2017-Dec-02 12:00N 45°25' W 073°40'3 5.8
2017-Dec-02 11:29N 45°24' W 073°36'2 2.8
2017-Dec-02 10:55N 45°24' W 073°34'1 1.7
2017-Dec-02 10:29N 45°24' W 073°33'3 5.2
2017-Dec-02 09:59N 45°26' W 073°30'  

Dump ship's entire track history